Time;durP1;ratioP1;P1;durP2;ratioP2;P2;SDS_P1;SDS_P2;PMS_P1;PMS_P2;Temp;Humidity;BMP_temperature;BMP_pressure;BME280_temperature;BME280_humidity;BME280_pressure;Samples;Min_cycle;Max_cycle;Signal;HPM_P1;HPM_P2
2021/01/08 00:00:17;;;;;;;28.88;4.70;;;15.00;99.90;;;;;;4700617;30;20454;-82
2021/01/08 00:02:44;;;;;;;32.75;5.63;;;15.00;99.90;;;;;;4700337;30;20093;-82
2021/01/08 00:05:11;;;;;;;25.02;7.45;;;15.00;99.90;;;;;;4713627;30;20037;-83
2021/01/08 00:07:37;;;;;;;32.78;8.00;;;15.00;99.90;;;;;;4715232;30;20040;-82
2021/01/08 00:10:06;;;;;;;34.88;6.68;;;15.00;99.90;;;;;;4726946;30;20042;-82
2021/01/08 00:12:34;;;;;;;34.40;6.72;;;15.00;99.90;;;;;;4726805;30;20045;-82
2021/01/08 00:15:00;;;;;;;29.83;5.10;;;15.00;99.90;;;;;;4683868;30;20033;-82
2021/01/08 00:17:30;;;;;;;21.15;4.55;;;15.00;99.90;;;;;;4698109;30;20053;-82
2021/01/08 00:19:57;;;;;;;31.10;5.70;;;15.00;99.90;;;;;;4698069;30;20115;-83
2021/01/08 00:22:23;;;;;;;29.05;6.32;;;15.00;99.90;;;;;;4698177;30;20383;-83
2021/01/08 00:24:50;;;;;;;33.67;6.38;;;15.10;99.90;;;;;;4698709;30;20106;-83
2021/01/08 00:27:17;;;;;;;26.58;6.55;;;15.00;99.90;;;;;;4699529;30;20040;-81
2021/01/08 00:29:43;;;;;;;27.05;7.00;;;15.00;99.90;;;;;;4713572;30;20558;-83
2021/01/08 00:32:11;;;;;;;25.25;5.60;;;15.10;99.90;;;;;;4728995;30;20039;-82
2021/01/08 00:34:38;;;;;;;30.35;5.80;;;15.10;99.90;;;;;;4714635;30;20041;-82
2021/01/08 00:37:04;;;;;;;28.70;6.90;;;15.10;99.90;;;;;;4716280;30;20395;-83
2021/01/08 00:39:30;;;;;;;20.83;5.80;;;15.10;99.90;;;;;;4714897;30;20045;-82
2021/01/08 00:41:56;;;;;;;26.02;6.97;;;15.10;99.90;;;;;;4700008;30;20057;-83
2021/01/08 00:44:23;;;;;;;29.10;6.32;;;15.10;99.90;;;;;;4714131;30;20507;-82
2021/01/08 00:46:51;;;;;;;19.60;5.47;;;15.10;99.90;;;;;;4715582;30;20402;-82
2021/01/08 00:49:18;;;;;;;29.33;6.50;;;15.10;99.90;;;;;;4715015;30;20037;-82
2021/01/08 00:51:44;;;;;;;35.60;7.43;;;15.10;99.90;;;;;;4714705;30;20029;-83
2021/01/08 00:54:11;;;;;;;26.10;5.45;;;15.10;99.90;;;;;;4698636;30;20176;-82
2021/01/08 00:56:46;;;;;;;24.23;5.40;;;15.10;99.90;;;;;;4714117;30;20483;-83
2021/01/08 00:59:27;;;;;;;25.95;6.25;;;15.10;99.90;;;;;;4716811;30;20088;-83
2021/01/08 01:01:53;;;;;;;23.48;5.32;;;15.10;99.90;;;;;;4699732;30;20377;-83
2021/01/08 01:04:19;;;;;;;23.58;5.90;;;15.10;99.90;;;;;;4713660;30;20177;-81
2021/01/08 01:06:45;;;;;;;24.88;6.18;;;15.10;99.90;;;;;;4702631;30;20029;-82
2021/01/08 01:09:11;;;;;;;33.28;6.03;;;15.10;99.90;;;;;;4715854;30;20047;-83
2021/01/08 01:11:39;;;;;;;35.72;7.47;;;15.10;99.90;;;;;;4698464;30;20071;-84
2021/01/08 01:14:06;;;;;;;32.20;6.55;;;15.10;99.90;;;;;;4707775;30;20158;-85
2021/01/08 01:16:32;;;;;;;24.15;6.00;;;15.10;99.90;;;;;;4713798;30;20037;-86
2021/01/08 01:18:59;;;;;;;25.25;6.15;;;15.10;99.90;;;;;;4715426;30;20377;-87
2021/01/08 01:21:27;;;;;;;33.10;7.28;;;15.10;99.90;;;;;;4706560;30;20034;-87
2021/01/08 01:23:54;;;;;;;32.15;5.78;;;15.10;99.90;;;;;;4703137;30;20376;-87
2021/01/08 01:26:20;;;;;;;23.58;5.60;;;15.10;99.90;;;;;;4702943;30;20531;-87
2021/01/08 01:28:46;;;;;;;24.48;6.32;;;15.10;99.90;;;;;;4694225;30;20044;-83
2021/01/08 01:31:12;;;;;;;28.40;5.28;;;15.10;99.90;;;;;;4709767;30;20431;-85
2021/01/08 01:33:38;;;;;;;25.70;6.28;;;15.10;99.90;;;;;;4706584;30;20034;-86
2021/01/08 01:36:08;;;;;;;29.27;6.65;;;15.10;99.90;;;;;;4709726;30;20108;-85
2021/01/08 01:38:38;;;;;;;20.08;4.85;;;15.10;99.90;;;;;;4694209;30;20056;-85
2021/01/08 01:41:05;;;;;;;26.88;7.47;;;15.10;99.90;;;;;;4714795;30;20463;-84
2021/01/08 01:43:31;;;;;;;27.67;8.20;;;15.10;99.90;;;;;;4712524;30;20115;-85
2021/01/08 01:45:57;;;;;;;26.30;5.65;;;15.10;99.90;;;;;;4704085;30;20083;-83
2021/01/08 01:48:24;;;;;;;31.35;5.55;;;15.00;99.90;;;;;;4711183;30;20116;-86
2021/01/08 01:50:52;;;;;;;26.08;5.90;;;15.10;99.90;;;;;;4706309;30;20514;-86
2021/01/08 01:53:19;;;;;;;19.05;5.78;;;15.10;99.90;;;;;;4706735;30;20041;-85
2021/01/08 01:55:46;;;;;;;29.40;6.63;;;15.10;99.90;;;;;;4711847;30;20095;-84
2021/01/08 01:58:14;;;;;;;22.45;6.03;;;15.10;99.90;;;;;;4709372;30;20040;-80
2021/01/08 02:00:40;;;;;;;24.83;6.20;;;15.10;99.90;;;;;;4697317;30;20107;-85
2021/01/08 02:03:20;;;;;;;24.65;6.55;;;15.10;99.90;;;;;;4710357;30;20421;-87
2021/01/08 02:05:49;;;;;;;25.75;6.53;;;15.10;99.90;;;;;;4702610;30;20033;-87
2021/01/08 02:08:22;;;;;;;23.65;5.65;;;15.10;99.90;;;;;;4706103;30;20447;-85
2021/01/08 02:10:53;;;;;;;;;;;15.10;99.90;;;;;;4715995;30;20029;-87
2021/01/08 02:13:56;;;;;;;27.88;6.25;;;15.10;99.90;;;;;;4705554;30;19958;-85
2021/01/08 02:16:25;;;;;;;17.85;5.95;;;15.10;99.90;;;;;;4708937;30;20035;-85
2021/01/08 02:18:53;;;;;;;40.75;8.13;;;15.00;99.90;;;;;;4699904;30;20045;-85
2021/01/08 02:21:31;;;;;;;38.00;7.38;;;15.10;99.90;;;;;;4715506;30;20037;-83
2021/01/08 02:24:13;;;;;;;27.90;5.40;;;15.00;99.90;;;;;;4734458;30;20709;-85
2021/01/08 02:26:41;;;;;;;22.13;4.72;;;15.00;99.90;;;;;;4704570;30;20048;-83
2021/01/08 02:29:08;;;;;;;28.92;5.75;;;15.00;99.90;;;;;;4712786;30;20041;-87
2021/01/08 02:31:34;;;;;;;26.63;4.95;;;15.00;99.90;;;;;;4741212;30;20069;-86
2021/01/08 07:17:05;;;;;;;34.35;5.53;;;14.50;99.90;;;;;;4691597;30;20069;-89
2021/01/08 07:19:31;;;;;;;19.77;5.75;;;14.60;99.90;;;;;;4689273;30;20124;-80
2021/01/08 07:22:03;;;;;;;44.35;7.10;;;14.60;99.90;;;;;;4698272;30;20034;-82
2021/01/08 07:24:37;;;;;;;34.90;7.15;;;14.70;99.90;;;;;;4697177;30;20034;-81
2021/01/08 07:27:21;;;;;;;27.10;5.90;;;14.70;99.90;;;;;;4699948;30;20097;-82
2021/01/08 07:30:00;;;;;;;21.13;5.95;;;14.70;99.90;;;;;;4698345;30;20053;-82
2021/01/08 07:32:39;;;;;;;30.83;6.45;;;14.80;99.90;;;;;;4694294;30;20042;-85
2021/01/08 07:35:24;;;;;;;32.40;7.57;;;14.90;99.90;;;;;;4696570;30;20075;-84
2021/01/08 07:38:07;;;;;;;31.83;6.63;;;14.90;99.90;;;;;;4696750;30;20041;-83
2021/01/08 07:40:49;;;;;;;36.97;6.65;;;15.00;99.90;;;;;;4698551;30;20041;-83
2021/01/08 07:43:16;;;;;;;30.58;6.68;;;15.00;99.90;;;;;;4697179;30;20503;-85
2021/01/08 07:45:59;;;;;;;39.80;7.15;;;15.10;99.90;;;;;;4698351;30;20471;-83
2021/01/08 07:48:39;;;;;;;32.08;7.38;;;15.10;99.90;;;;;;4698299;30;20052;-85
2021/01/08 07:51:10;;;;;;;26.20;5.85;;;15.10;99.90;;;;;;4697951;30;20041;-85
2021/01/08 07:53:42;;;;;;;26.20;7.93;;;15.20;99.90;;;;;;4695944;30;20498;-85
2021/01/08 07:56:13;;;;;;;30.23;7.72;;;15.20;99.90;;;;;;4692679;30;20041;-85
2021/01/08 07:58:40;;;;;;;26.63;6.10;;;15.30;99.90;;;;;;4695932;30;20041;-83
2021/01/08 08:01:08;;;;;;;25.98;6.28;;;15.30;99.90;;;;;;4698045;30;20050;-85
2021/01/08 08:03:37;;;;;;;28.95;7.88;;;15.40;99.90;;;;;;4695728;30;20044;-81
2021/01/08 08:06:04;;;;;;;46.35;7.97;;;15.40;99.90;;;;;;4697537;30;20034;-81
2021/01/08 08:08:31;;;;;;;19.65;4.70;;;15.40;99.90;;;;;;4697522;30;20042;-80
2021/01/08 08:11:09;;;;;;;28.27;5.38;;;15.50;99.90;;;;;;4697305;30;20036;-81
2021/01/08 08:13:36;;;;;;;19.10;5.57;;;15.50;99.90;;;;;;4697123;30;20041;-82
2021/01/08 08:16:02;;;;;;;25.50;5.43;;;15.50;99.90;;;;;;4695759;30;20760;-75
2021/01/08 08:18:29;;;;;;;23.05;5.28;;;15.50;99.90;;;;;;4697009;30;20042;-77
2021/01/08 08:21:11;;;;;;;40.42;6.68;;;15.60;99.90;;;;;;4696658;30;20168;-76
2021/01/08 08:23:38;;;;;;;27.02;5.68;;;15.60;99.90;;;;;;4694481;30;20049;-76
2021/01/08 08:26:04;;;;;;;28.40;6.25;;;15.70;99.90;;;;;;4696208;30;20050;-76
2021/01/08 08:28:31;;;;;;;32.58;7.35;;;15.70;99.90;;;;;;4695589;30;20037;-75
2021/01/08 08:30:57;;;;;;;23.33;6.72;;;15.70;99.90;;;;;;4696476;30;20510;-76
2021/01/08 08:33:24;;;;;;;20.17;4.72;;;15.90;99.90;;;;;;4695422;30;20026;-76
2021/01/08 08:35:50;;;;;;;21.80;6.00;;;15.90;99.90;;;;;;4692685;30;20038;-77
2021/01/08 08:38:17;;;;;;;27.00;6.78;;;16.00;99.90;;;;;;4693150;30;20403;-76
2021/01/08 08:40:43;;;;;;;28.48;6.55;;;16.10;99.90;;;;;;4693683;30;20111;-76
2021/01/08 08:43:17;;;;;;;23.83;5.07;;;16.20;99.90;;;;;;4695337;30;20037;-76
2021/01/08 08:45:43;;;;;;;25.30;5.78;;;16.20;99.90;;;;;;4695609;30;20041;-76
2021/01/08 08:48:10;;;;;;;26.40;6.88;;;16.30;99.90;;;;;;4696709;30;20049;-77
2021/01/08 08:50:43;;;;;;;23.85;6.28;;;16.50;99.90;;;;;;4697233;30;20496;-76
2021/01/08 08:53:10;;;;;;;26.38;5.70;;;16.60;99.90;;;;;;4696809;30;20037;-76
2021/01/08 08:55:37;;;;;;;28.05;5.30;;;16.50;99.90;;;;;;4696377;30;20063;-76
2021/01/08 08:58:07;;;;;;;19.00;4.55;;;16.60;99.90;;;;;;4695833;30;20057;-76
2021/01/08 09:00:35;;;;;;;23.25;5.60;;;16.70;99.90;;;;;;4696605;30;20034;-78
2021/01/08 09:03:14;;;;;;;26.75;5.20;;;16.80;99.90;;;;;;4695257;30;21640;-78
2021/01/08 09:05:42;;;;;;;33.55;5.88;;;16.90;99.90;;;;;;4696445;30;20050;-79
2021/01/08 09:08:15;;;;;;;22.25;5.45;;;16.90;99.90;;;;;;4694886;30;20407;-80
2021/01/08 09:10:50;;;;;;;23.95;5.63;;;16.90;99.90;;;;;;4694922;30;20510;-75
2021/01/08 09:13:59;;;;;;;27.40;5.47;;;16.90;99.90;;;;;;4695178;30;20053;-76
2021/01/08 09:16:44;;;;;;;20.33;5.57;;;16.90;99.90;;;;;;4695161;30;20112;-84
2021/01/08 09:19:30;;;;;;;38.45;6.55;;;17.00;99.90;;;;;;4689251;30;20098;-83
2021/01/08 09:21:57;;;;;;;21.17;4.57;;;17.10;99.90;;;;;;4694754;30;20033;-88
2021/01/08 09:24:25;;;;;;;24.92;5.65;;;17.30;99.90;;;;;;4695188;30;20046;-89
2021/01/08 09:26:53;;;;;;;27.45;5.10;;;17.30;99.90;;;;;;4708644;30;20048;-81
2021/01/08 09:29:31;;;;;;;22.88;5.68;;;17.30;99.90;;;;;;4691284;30;20040;-81
2021/01/08 09:32:00;;;;;;;22.08;5.43;;;17.40;99.90;;;;;;4680519;30;20041;-75
2021/01/08 09:34:27;;;;;;;21.05;4.47;;;17.50;99.90;;;;;;4695918;30;20164;-77
2021/01/08 09:36:55;;;;;;;30.55;5.75;;;17.60;99.90;;;;;;4694878;30;20033;-76
2021/01/08 09:39:23;;;;;;;23.25;4.68;;;17.70;99.90;;;;;;4694902;30;20052;-76
2021/01/08 09:42:00;;;;;;;21.38;5.07;;;17.80;99.90;;;;;;4693880;30;20180;-76
2021/01/08 09:44:37;;;;;;;37.95;6.38;;;17.80;99.90;;;;;;4692306;30;20037;-77
2021/01/08 09:47:05;;;;;;;23.23;5.03;;;17.90;99.90;;;;;;4696391;30;20446;-76
2021/01/08 09:49:48;;;;;;;25.65;4.75;;;17.90;99.90;;;;;;4695485;30;20033;-77
2021/01/08 09:52:14;;;;;;;17.60;3.88;;;17.70;99.90;;;;;;4694841;30;20026;-77
2021/01/08 09:54:46;;;;;;;28.08;5.78;;;17.80;99.90;;;;;;4695258;30;20033;-77
2021/01/08 09:57:35;;;;;;;25.02;4.63;;;17.60;99.90;;;;;;4695394;30;20522;-77
2021/01/08 10:00:06;;;;;;;24.17;5.90;;;17.50;99.90;;;;;;4693785;30;20515;-77
2021/01/08 10:02:42;;;;;;;17.02;3.95;;;17.40;99.90;;;;;;4695553;30;20037;-77
2021/01/08 10:05:28;;;;;;;17.75;4.80;;;17.30;99.90;;;;;;4693267;30;20120;-77
2021/01/08 10:07:55;;;;;;;18.38;4.30;;;17.40;99.90;;;;;;4695347;30;20044;-77
2021/01/08 10:10:28;;;;;;;20.85;4.75;;;17.50;99.90;;;;;;4691446;30;20526;-77
2021/01/08 10:12:55;;;;;;;22.23;5.47;;;17.60;99.90;;;;;;4694721;30;20044;-77
2021/01/08 10:15:33;;;;;;;26.88;6.55;;;17.60;99.90;;;;;;4693406;30;20040;-77
2021/01/08 10:18:11;;;;;;;24.50;4.80;;;17.60;99.90;;;;;;4693032;30;20660;-77
2021/01/08 10:20:45;;;;;;;33.47;5.38;;;17.60;99.90;;;;;;4695110;30;20041;-77
2021/01/08 10:23:13;;;;;;;39.92;5.97;;;17.70;99.90;;;;;;4694017;30;20038;-77
2021/01/08 10:25:40;;;;;;;22.02;5.20;;;18.10;99.90;;;;;;4695197;30;20033;-77
2021/01/08 10:28:23;;;;;;;24.10;6.50;;;18.40;99.90;;;;;;4694349;30;20033;-77
2021/01/08 10:30:52;;;;;;;25.10;6.18;;;18.90;99.90;;;;;;4695689;30;20037;-77
2021/01/08 10:33:20;;;;;;;21.58;6.13;;;19.10;99.90;;;;;;4695353;30;20029;-77
2021/01/08 10:35:50;;;;;;;18.58;4.80;;;19.20;99.90;;;;;;4688691;30;20038;-77
2021/01/08 10:38:17;;;;;;;23.92;6.82;;;18.90;99.90;;;;;;4694610;30;20583;-77
2021/01/08 10:40:43;;;;;;;21.10;5.45;;;18.70;99.90;;;;;;4695213;30;20022;-75
2021/01/08 10:43:09;;;;;;;24.15;4.75;;;18.50;99.90;;;;;;4695277;30;20033;-75
2021/01/08 10:45:39;;;;;;;21.52;4.55;;;18.40;99.90;;;;;;4695446;30;20399;-75
2021/01/08 10:48:06;;;;;;;20.35;5.63;;;18.20;99.90;;;;;;4694975;30;20391;-75
2021/01/08 10:50:35;;;;;;;18.60;6.30;;;18.00;99.90;;;;;;4695616;30;20042;-75
2021/01/08 10:53:03;;;;;;;23.77;5.70;;;17.90;99.90;;;;;;4706065;30;20090;-75
2021/01/08 10:55:29;;;;;;;22.60;7.03;;;17.80;99.90;;;;;;4694456;30;20042;-76
2021/01/08 10:57:56;;;;;;;26.83;6.43;;;17.80;99.90;;;;;;4693454;30;20127;-75
2021/01/08 11:00:22;;;;;;;21.35;5.65;;;17.80;99.90;;;;;;4694805;30;20402;-75
2021/01/08 11:02:49;;;;;;;25.75;7.20;;;17.80;99.90;;;;;;4694831;30;20030;-75
2021/01/08 11:05:15;;;;;;;32.63;5.65;;;17.80;99.90;;;;;;4707455;30;20124;-75
2021/01/08 11:07:41;;;;;;;22.77;6.47;;;17.70;99.90;;;;;;4695058;30;20029;-75
2021/01/08 11:10:08;;;;;;;19.40;5.93;;;17.80;99.90;;;;;;4693117;30;20380;-75
2021/01/08 11:12:36;;;;;;;34.03;6.57;;;17.80;99.90;;;;;;4694279;30;20032;-75
2021/01/08 11:15:05;;;;;;;24.13;6.25;;;17.90;99.90;;;;;;4694783;30;20036;-75
2021/01/08 11:17:31;;;;;;;20.25;5.75;;;17.80;99.90;;;;;;4694744;30;20050;-76
2021/01/08 11:19:57;;;;;;;20.27;5.07;;;17.90;99.90;;;;;;4693464;30;20033;-75
2021/01/08 11:22:28;;;;;;;14.30;4.45;;;17.70;99.90;;;;;;4694690;30;20037;-75
2021/01/08 11:24:55;;;;;;;21.67;5.95;;;17.70;99.90;;;;;;4695228;30;20567;-76
2021/01/08 11:27:21;;;;;;;19.50;5.80;;;17.70;99.90;;;;;;4694895;30;20447;-75
2021/01/08 11:29:48;;;;;;;17.85;4.72;;;17.80;99.90;;;;;;4695004;30;20041;-76
2021/01/08 11:32:14;;;;;;;18.20;4.95;;;17.70;99.90;;;;;;4693323;30;20065;-76
2021/01/08 11:34:40;;;;;;;24.33;5.93;;;17.70;99.90;;;;;;4689519;30;20049;-74
2021/01/08 11:37:07;;;;;;;20.23;4.82;;;17.60;99.90;;;;;;4691809;30;20048;-75
2021/01/08 11:39:33;;;;;;;18.67;5.07;;;17.60;99.90;;;;;;4691732;30;20136;-76
2021/01/08 11:41:59;;;;;;;21.85;5.50;;;17.60;99.90;;;;;;4694499;30;20444;-76
2021/01/08 11:44:26;;;;;;;22.90;5.50;;;17.70;99.90;;;;;;4696425;30;20033;-76
2021/01/08 11:46:52;;;;;;;21.70;4.07;;;17.60;99.90;;;;;;4695620;30;20029;-75
2021/01/08 11:49:19;;;;;;;19.85;5.50;;;17.60;99.90;;;;;;4697834;30;20034;-75
2021/01/08 11:51:46;;;;;;;22.48;5.22;;;17.50;99.90;;;;;;4698132;30;20060;-74
2021/01/08 11:54:13;;;;;;;18.05;4.35;;;17.50;99.90;;;;;;4697266;30;20038;-75
2021/01/08 11:56:39;;;;;;;17.25;4.55;;;17.50;99.90;;;;;;4701480;30;20053;-75
2021/01/08 11:59:05;;;;;;;23.15;4.95;;;17.40;99.90;;;;;;4697317;30;20050;-75
2021/01/08 12:01:31;;;;;;;25.55;5.30;;;17.40;99.90;;;;;;4697870;30;20500;-75
2021/01/08 12:03:59;;;;;;;13.43;4.43;;;17.40;99.90;;;;;;4697801;30;20492;-74
2021/01/08 12:06:33;;;;;;;29.48;4.55;;;17.40;99.90;;;;;;4698074;30;20038;-75
2021/01/08 12:09:01;;;;;;;16.25;4.45;;;17.40;99.90;;;;;;4696756;30;20040;-74
2021/01/08 12:11:27;;;;;;;20.25;4.47;;;17.40;99.90;;;;;;4697019;30;20034;-75
2021/01/08 12:13:54;;;;;;;18.38;4.53;;;17.40;99.90;;;;;;4697195;30;20026;-75
2021/01/08 12:16:31;;;;;;;19.77;5.25;;;17.40;99.90;;;;;;4697594;30;20063;-75
2021/01/08 12:18:58;;;;;;;18.38;5.00;;;17.40;99.90;;;;;;4697077;30;20751;-74
2021/01/08 12:21:25;;;;;;;33.17;7.47;;;17.40;99.90;;;;;;4697163;30;20104;-75
2021/01/08 12:23:52;;;;;;;18.48;4.43;;;17.40;99.90;;;;;;4697870;30;20038;-75
2021/01/08 12:26:19;;;;;;;17.02;3.85;;;17.20;99.90;;;;;;4697175;30;20037;-75
2021/01/08 12:28:48;;;;;;;23.42;4.90;;;17.20;99.90;;;;;;4687340;30;20590;-74
2021/01/08 12:31:14;;;;;;;20.70;4.40;;;17.00;99.90;;;;;;4693697;30;20072;-76
2021/01/08 12:33:41;;;;;;;24.10;5.60;;;17.00;99.90;;;;;;4696793;30;20041;-75
2021/01/08 12:36:09;;;;;;;22.35;4.70;;;16.90;99.90;;;;;;4694600;30;20129;-74
2021/01/08 12:38:35;;;;;;;19.48;4.97;;;16.90;99.90;;;;;;4696823;30;20060;-74
2021/01/08 12:41:02;;;;;;;17.73;4.93;;;17.00;99.90;;;;;;4696350;30;20813;-74
2021/01/08 12:43:28;;;;;;;22.55;5.07;;;17.00;99.90;;;;;;4695675;30;20041;-74
2021/01/08 12:45:54;;;;;;;30.50;10.80;;;17.00;99.90;;;;;;4698484;30;20032;-74
2021/01/08 12:48:20;;;;;;;28.42;6.03;;;17.00;99.90;;;;;;4696887;30;20040;-74
2021/01/08 12:50:46;;;;;;;22.75;4.53;;;16.90;99.90;;;;;;4693827;30;20399;-76
2021/01/08 12:53:12;;;;;;;24.58;4.72;;;16.70;99.90;;;;;;4696514;30;20041;-75
2021/01/08 12:55:38;;;;;;;31.33;5.35;;;16.70;99.90;;;;;;4699296;30;20037;-75
2021/01/08 12:58:04;;;;;;;25.67;8.10;;;16.60;99.90;;;;;;4695303;30;20624;-74
2021/01/08 13:00:31;;;;;;;37.95;7.85;;;16.60;99.90;;;;;;4696037;30;20029;-74
2021/01/08 13:02:57;;;;;;;41.22;13.23;;;16.60;99.90;;;;;;4696118;30;20040;-75
2021/01/08 13:05:23;;;;;;;37.45;9.07;;;16.60;99.90;;;;;;4696716;30;21087;-74
2021/01/08 13:07:49;;;;;;;29.90;8.23;;;16.60;99.90;;;;;;4696505;30;20633;-75
2021/01/08 13:10:15;;;;;;;39.03;11.13;;;16.60;99.90;;;;;;4696469;30;20045;-74
2021/01/08 13:12:41;;;;;;;22.10;7.63;;;16.60;99.90;;;;;;4695062;30;20033;-74
2021/01/08 13:15:08;;;;;;;30.70;5.18;;;16.50;99.90;;;;;;4690790;30;20377;-74
2021/01/08 13:17:36;;;;;;;22.40;4.50;;;16.60;99.90;;;;;;4693421;30;20773;-75
2021/01/08 13:20:04;;;;;;;21.65;5.93;;;16.60;99.90;;;;;;4693798;30;20053;-75
2021/01/08 13:22:29;;;;;;;20.63;4.43;;;16.50;99.90;;;;;;4696227;30;20033;-75
2021/01/08 13:24:56;;;;;;;29.20;7.18;;;16.50;99.90;;;;;;4694600;30;20128;-74
2021/01/08 13:27:22;;;;;;;28.70;7.82;;;16.50;99.90;;;;;;4696484;30;20554;-74
2021/01/08 13:29:48;;;;;;;24.85;6.05;;;16.50;99.90;;;;;;4700616;30;20037;-75
2021/01/08 13:32:14;;;;;;;29.38;6.65;;;16.40;99.90;;;;;;4696478;30;20554;-74
2021/01/08 13:34:40;;;;;;;47.53;16.67;;;16.40;99.90;;;;;;4695682;30;20117;-75
2021/01/08 13:37:06;;;;;;;68.45;28.83;;;16.20;99.90;;;;;;4696369;30;20065;-74
2021/01/08 13:39:32;;;;;;;42.22;16.27;;;16.20;99.90;;;;;;4695553;30;20037;-74
2021/01/08 13:42:03;;;;;;;24.02;9.57;;;16.00;99.90;;;;;;4695924;30;20065;-74
2021/01/08 13:44:30;;;;;;;31.75;12.52;;;15.70;99.90;;;;;;4694378;30;20033;-74
2021/01/08 13:46:57;;;;;;;35.92;19.63;;;15.50;99.90;;;;;;4695541;30;20029;-74
2021/01/08 13:49:23;;;;;;;35.17;16.67;;;15.30;99.90;;;;;;4694318;30;20575;-74
2021/01/08 13:51:55;;;;;;;74.35;39.72;;;15.20;99.90;;;;;;4694261;30;20037;-74
2021/01/08 13:54:21;;;;;;;19.48;8.75;;;14.90;99.90;;;;;;4696212;30;20030;-74
2021/01/08 13:56:47;;;;;;;35.42;15.07;;;14.90;99.90;;;;;;4695349;30;20051;-74
2021/01/08 13:59:13;;;;;;;34.65;17.08;;;14.80;99.90;;;;;;4695339;30;20454;-74
2021/01/08 14:01:39;;;;;;;23.25;11.95;;;14.70;99.90;;;;;;4694743;30;20025;-74
2021/01/08 14:04:05;;;;;;;21.13;11.13;;;14.60;99.90;;;;;;4695366;30;20044;-74
2021/01/08 14:06:31;;;;;;;18.95;6.72;;;14.60;99.90;;;;;;4695574;30;20041;-74
2021/01/08 14:08:58;;;;;;;103.95;44.75;;;14.50;99.90;;;;;;4693165;30;20045;-75
2021/01/08 14:11:31;;;;;;;56.83;29.73;;;14.50;99.90;;;;;;4694637;30;20072;-74
2021/01/08 14:13:58;;;;;;;68.05;34.70;;;14.50;99.90;;;;;;4708559;30;20391;-73
2021/01/08 14:16:29;;;;;;;20.98;7.10;;;14.30;99.90;;;;;;4707957;30;20058;-73
2021/01/08 14:18:57;;;;;;;13.02;4.45;;;14.20;99.90;;;;;;4695024;30;20058;-74
2021/01/08 14:21:37;;;;;;;19.85;7.32;;;14.10;99.90;;;;;;4695703;30;20037;-73
2021/01/08 14:24:05;;;;;;;12.90;6.68;;;14.00;99.90;;;;;;4695139;30;20073;-73
2021/01/08 14:26:31;;;;;;;20.73;6.68;;;13.90;99.90;;;;;;4695164;30;20053;-74
2021/01/08 14:28:58;;;;;;;13.25;5.20;;;13.80;99.90;;;;;;4697081;30;20039;-74
2021/01/08 14:31:39;;;;;;;13.77;4.40;;;13.80;99.90;;;;;;4694531;30;20113;-73
2021/01/08 14:34:12;;;;;;;16.25;6.18;;;13.70;99.90;;;;;;4692954;30;20140;-73
2021/01/08 14:36:57;;;;;;;12.20;4.05;;;13.70;99.90;;;;;;4694022;30;20036;-74
2021/01/08 14:39:23;;;;;;;10.60;4.30;;;13.70;99.90;;;;;;4698117;30;20041;-74
2021/01/08 14:41:53;;;;;;;13.15;5.53;;;13.60;99.90;;;;;;4693757;30;20041;-73
2021/01/08 14:44:19;;;;;;;15.82;4.25;;;13.70;99.90;;;;;;4694190;30;20083;-74
2021/01/08 14:46:45;;;;;;;11.70;3.78;;;13.70;99.90;;;;;;4694640;30;20030;-74
2021/01/08 14:49:11;;;;;;;11.30;4.75;;;13.70;99.90;;;;;;4695446;30;20143;-74
2021/01/08 14:51:40;;;;;;;11.63;4.55;;;13.60;99.90;;;;;;4695075;30;20042;-74
2021/01/08 14:54:07;;;;;;;7.13;3.72;;;13.60;99.90;;;;;;4701555;30;20289;-73
2021/01/08 14:56:52;;;;;;;16.30;5.53;;;13.60;99.90;;;;;;4695227;30;20077;-73
2021/01/08 14:59:18;;;;;;;7.78;3.47;;;13.50;99.90;;;;;;4695593;30;20041;-73
2021/01/08 15:01:45;;;;;;;8.77;4.07;;;13.50;99.90;;;;;;4695108;30;20041;-74
2021/01/08 15:04:12;;;;;;;11.88;4.28;;;13.40;99.90;;;;;;4692727;30;20037;-73
2021/01/08 15:06:39;;;;;;;10.73;3.75;;;13.40;99.90;;;;;;4695006;30;20133;-74
2021/01/08 15:09:06;;;;;;;7.75;4.10;;;13.40;99.90;;;;;;4695606;30;20041;-73
2021/01/08 15:11:38;;;;;;;12.32;4.40;;;13.30;99.90;;;;;;4696334;30;20048;-73
2021/01/08 15:14:06;;;;;;;7.22;3.28;;;13.30;99.90;;;;;;4695376;30;20041;-75
2021/01/08 15:16:32;;;;;;;10.88;3.53;;;13.30;99.90;;;;;;4698672;30;20069;-76
2021/01/08 15:18:58;;;;;;;15.75;3.75;;;13.30;99.90;;;;;;4698100;30;20120;-74
2021/01/08 15:21:24;;;;;;;5.25;3.70;;;13.30;99.90;;;;;;4698284;30;20042;-73
2021/01/08 15:23:51;;;;;;;17.42;4.65;;;13.30;99.90;;;;;;4697867;30;20414;-74
2021/01/08 15:26:18;;;;;;;17.00;4.38;;;13.20;99.90;;;;;;4695176;30;20378;-73
2021/01/08 15:28:44;;;;;;;15.75;4.95;;;13.10;99.90;;;;;;4697631;30;20384;-73
2021/01/08 15:31:11;;;;;;;12.52;4.63;;;13.10;99.90;;;;;;4697501;30;20052;-73
2021/01/08 15:33:38;;;;;;;17.33;5.35;;;13.10;99.90;;;;;;4696471;30;20041;-74
2021/01/08 15:36:05;;;;;;;11.88;5.35;;;13.10;99.90;;;;;;4697455;30;20033;-73
2021/01/08 15:38:40;;;;;;;17.02;8.55;;;13.10;99.90;;;;;;4697429;30;20042;-74
2021/01/08 15:41:09;;;;;;;17.00;8.27;;;13.10;99.90;;;;;;4695905;30;20045;-74
2021/01/08 15:43:36;;;;;;;18.35;6.18;;;13.10;99.90;;;;;;4693459;30;20030;-74
2021/01/08 15:46:02;;;;;;;10.43;5.93;;;13.10;99.90;;;;;;4695891;30;20522;-73
2021/01/08 15:48:30;;;;;;;12.32;5.05;;;13.10;99.90;;;;;;4697775;30;20036;-73
2021/01/08 15:51:00;;;;;;;17.63;6.55;;;13.00;99.90;;;;;;4699042;30;20217;-74
2021/01/08 15:53:27;;;;;;;13.75;4.40;;;13.00;99.90;;;;;;4696689;30;20542;-74
2021/01/08 15:55:54;;;;;;;13.48;5.70;;;12.90;99.90;;;;;;4694363;30;20025;-74
2021/01/08 15:58:21;;;;;;;11.48;5.72;;;12.90;99.90;;;;;;4697583;30;20049;-74
2021/01/08 16:00:50;;;;;;;24.00;6.30;;;12.90;99.90;;;;;;4697880;30;20041;-74
2021/01/08 16:03:16;;;;;;;16.08;6.68;;;12.90;99.90;;;;;;4696449;30;20040;-73
2021/01/08 16:05:44;;;;;;;15.32;7.18;;;12.90;99.90;;;;;;4695355;30;20072;-76
2021/01/08 16:08:10;;;;;;;12.07;6.35;;;12.90;99.90;;;;;;4696917;30;20048;-74
2021/01/08 16:10:36;;;;;;;18.25;6.60;;;12.80;99.90;;;;;;4695390;30;20041;-74
2021/01/08 16:13:03;;;;;;;12.35;5.97;;;12.80;99.90;;;;;;4696244;30;20049;-74
2021/01/08 16:15:29;;;;;;;15.15;6.22;;;12.80;99.90;;;;;;4695669;30;20060;-73
2021/01/08 16:18:00;;;;;;;24.40;5.68;;;12.80;99.90;;;;;;4696125;30;20057;-73
2021/01/08 16:20:28;;;;;;;13.38;5.88;;;12.80;99.90;;;;;;4708307;30;20053;-73
2021/01/08 16:22:54;;;;;;;12.57;7.90;;;12.80;99.90;;;;;;4697323;30;20038;-74
2021/01/08 16:25:21;;;;;;;14.60;7.20;;;12.80;99.90;;;;;;4709457;30;20037;-73
2021/01/08 16:27:48;;;;;;;8.68;4.57;;;12.70;99.90;;;;;;4697112;30;20388;-77
2021/01/08 16:30:18;;;;;;;12.82;5.75;;;12.70;99.90;;;;;;4697201;30;20044;-74
2021/01/08 16:32:46;;;;;;;12.30;6.10;;;12.70;99.90;;;;;;4697854;30;20025;-74
2021/01/08 16:35:14;;;;;;;12.88;5.97;;;12.70;99.90;;;;;;4697028;30;20113;-74
2021/01/08 16:37:42;;;;;;;15.20;6.50;;;12.60;99.90;;;;;;4696450;30;20037;-74
2021/01/08 16:40:12;;;;;;;15.93;5.45;;;12.60;99.90;;;;;;4697453;30;20412;-73
2021/01/08 16:42:40;;;;;;;17.27;6.97;;;12.60;99.90;;;;;;4697091;30;20038;-74
2021/01/08 16:45:09;;;;;;;14.77;6.13;;;12.50;99.90;;;;;;4695818;30;20041;-74
2021/01/08 16:47:36;;;;;;;12.05;6.55;;;12.50;99.90;;;;;;4696863;30;20029;-73
2021/01/08 16:50:04;;;;;;;11.40;6.20;;;12.50;99.90;;;;;;4696974;30;20034;-74
2021/01/08 16:52:31;;;;;;;10.27;5.60;;;12.50;99.90;;;;;;4694906;30;20033;-73
2021/01/08 16:54:57;;;;;;;12.23;5.88;;;12.50;99.90;;;;;;4695269;30;20177;-73
2021/01/08 16:57:24;;;;;;;13.90;7.10;;;12.50;99.90;;;;;;4696989;30;20068;-74
2021/01/08 16:59:50;;;;;;;15.07;6.25;;;12.50;99.90;;;;;;4696464;30;20450;-74
2021/01/08 17:02:16;;;;;;;9.82;5.55;;;12.50;99.90;;;;;;4695870;30;20100;-73
2021/01/08 17:04:43;;;;;;;12.15;5.68;;;12.50;99.90;;;;;;4696633;30;20042;-73
2021/01/08 17:07:09;;;;;;;10.07;6.15;;;12.50;99.90;;;;;;4696562;30;20033;-74
2021/01/08 17:09:36;;;;;;;13.23;4.88;;;12.50;99.90;;;;;;4692768;30;20046;-73
2021/01/08 17:12:03;;;;;;;5.32;2.92;;;12.40;99.90;;;;;;4693350;30;20075;-76
2021/01/08 17:14:31;;;;;;;6.35;2.80;;;12.40;99.90;;;;;;4694829;30;20048;-75
2021/01/08 17:17:03;;;;;;;6.40;2.35;;;12.40;99.90;;;;;;4696549;30;20050;-75
2021/01/08 17:19:30;;;;;;;4.75;1.58;;;12.30;99.90;;;;;;4696741;30;20510;-75
2021/01/08 17:21:57;;;;;;;6.03;2.00;;;12.30;99.90;;;;;;4696549;30;20049;-77
2021/01/08 17:24:25;;;;;;;3.35;1.83;;;12.20;99.90;;;;;;4693839;30;20491;-75
2021/01/08 17:26:58;;;;;;;6.78;1.92;;;12.30;99.90;;;;;;4696434;30;20526;-75
2021/01/08 17:29:26;;;;;;;1.77;1.30;;;12.20;99.90;;;;;;4695865;30;20396;-74